createdAt,value
2023-04-16T00:01:02.928Z,96694.75
2023-04-16T00:03:29.692Z,96674.53
2023-04-16T00:05:56.888Z,96684.00
2023-04-16T00:08:24.797Z,96677.22
2023-04-16T00:10:55.688Z,96686.66
2023-04-16T00:13:22.736Z,96667.69
2023-04-16T00:15:49.526Z,96677.16
2023-04-16T00:18:16.073Z,96683.56
2023-04-16T00:20:42.604Z,96669.63
2023-04-16T00:23:09.233Z,96679.13
2023-04-16T00:25:35.886Z,96677.84
2023-04-16T00:28:02.917Z,96682.78
2023-04-16T00:30:29.641Z,96670.56
2023-04-16T00:32:56.299Z,96680.53
2023-04-16T00:35:22.956Z,96679.88
2023-04-16T00:37:49.504Z,96677.53
2023-04-16T00:40:16.268Z,96682.34
2023-04-16T00:42:42.893Z,96679.53
2023-04-16T00:45:10.453Z,96680.44
2023-04-16T00:47:37.143Z,96683.50
2023-04-16T00:50:04.636Z,96678.72
2023-04-16T00:52:32.761Z,96680.94
2023-04-16T00:54:59.642Z,96667.91
2023-04-16T00:57:27.107Z,96681.28
2023-04-16T00:59:54.174Z,96679.97
2023-04-16T01:02:20.644Z,96676.63
2023-04-16T01:04:47.238Z,96678.75
2023-04-16T01:07:13.790Z,96677.31
2023-04-16T01:09:40.322Z,96675.63
2023-04-16T01:12:06.958Z,96673.72
2023-04-16T01:14:36.392Z,96680.63
2023-04-16T01:17:04.055Z,96680.81
2023-04-16T01:19:36.395Z,96677.00
2023-04-16T01:22:03.873Z,96673.09
2023-04-16T01:24:30.761Z,96680.72
2023-04-16T01:27:00.960Z,96679.22
2023-04-16T01:29:27.810Z,96682.78
2023-04-16T01:31:54.603Z,96683.44
2023-04-16T01:34:21.260Z,96683.28
2023-04-16T01:36:47.777Z,96685.19
2023-04-16T01:39:16.471Z,96686.34
2023-04-16T01:41:43.758Z,96688.56
2023-04-16T01:44:10.542Z,96683.16
2023-04-16T01:46:38.168Z,96684.09
2023-04-16T01:49:05.566Z,96683.00
2023-04-16T01:51:32.337Z,96663.41
2023-04-16T01:53:59.061Z,96678.81
2023-04-16T01:56:25.869Z,96677.06
2023-04-16T01:58:53.032Z,96674.34
2023-04-16T02:01:19.665Z,96672.91
2023-04-16T02:03:47.297Z,96666.53
2023-04-16T02:06:14.775Z,96665.53
2023-04-16T02:08:41.706Z,96674.72
2023-04-16T02:11:08.367Z,96668.13
2023-04-16T02:13:35.083Z,96654.06
2023-04-16T02:16:02.542Z,96661.66
2023-04-16T02:18:29.215Z,96655.56
2023-04-16T02:20:59.462Z,96664.00
2023-04-16T02:23:26.039Z,96650.50
2023-04-16T02:25:52.638Z,96660.31
2023-04-16T02:28:19.256Z,96657.28
2023-04-16T02:30:45.799Z,96664.31
2023-04-16T02:33:12.703Z,96665.56
2023-04-16T02:35:40.351Z,96661.81
2023-04-16T02:38:07.926Z,96665.56
2023-04-16T02:40:34.830Z,96665.56
2023-04-16T02:43:01.350Z,96665.31
2023-04-16T02:45:28.042Z,96668.34
2023-04-16T02:47:54.620Z,96642.28
2023-04-16T02:50:21.367Z,96668.09
2023-04-16T02:52:48.635Z,96657.34
2023-04-16T02:55:15.399Z,96657.66
2023-04-16T02:57:42.669Z,96657.03
2023-04-16T03:00:09.974Z,96653.25
2023-04-16T03:02:36.743Z,96663.53
2023-04-16T03:05:03.875Z,96665.41
2023-04-16T03:07:30.483Z,96649.25
2023-04-16T03:09:57.289Z,96661.06
2023-04-16T03:12:23.887Z,96664.19
2023-04-16T03:14:52.535Z,96671.31
2023-04-16T03:17:19.224Z,96675.22
2023-04-16T03:19:46.213Z,96674.72
2023-04-16T03:22:13.369Z,96673.78
2023-04-16T03:24:39.920Z,96676.13
2023-04-16T03:27:06.448Z,96682.50
2023-04-16T03:29:32.992Z,96680.69
2023-04-16T03:31:59.590Z,96679.47
2023-04-16T03:34:26.166Z,96677.56
2023-04-16T03:36:52.731Z,96687.53
2023-04-16T03:39:19.538Z,96684.72
2023-04-16T03:41:46.266Z,96682.19
2023-04-16T03:44:12.816Z,96683.66
2023-04-16T03:46:39.406Z,96688.59
2023-04-16T03:49:06.293Z,96688.91
2023-04-16T03:51:33.110Z,96683.66
2023-04-16T03:53:59.715Z,96683.13
2023-04-16T03:56:26.311Z,96679.31
2023-04-16T03:58:52.875Z,96682.09
2023-04-16T04:01:19.405Z,96680.19
2023-04-16T04:03:46.138Z,96682.88
2023-04-16T04:06:12.850Z,96681.72
2023-04-16T04:08:39.428Z,96673.78
2023-04-16T04:11:06.134Z,96682.19
2023-04-16T04:13:32.663Z,96686.72
2023-04-16T04:15:59.378Z,96683.44
2023-04-16T04:18:26.017Z,96689.34
2023-04-16T04:20:52.701Z,96697.72
2023-04-16T04:23:19.323Z,96689.91
2023-04-16T04:25:46.110Z,96703.31
2023-04-16T04:28:12.698Z,96698.94
2023-04-16T04:30:39.245Z,96702.41
2023-04-16T04:33:06.414Z,96701.50
2023-04-16T04:35:33.482Z,96687.13
2023-04-16T04:38:00.161Z,96696.41
2023-04-16T04:40:26.713Z,96697.59
2023-04-16T04:42:53.290Z,96694.19
2023-04-16T04:45:19.888Z,96699.63
2023-04-16T04:47:46.428Z,96702.81
2023-04-16T04:50:13.020Z,96707.88
2023-04-16T04:52:39.574Z,96711.72
2023-04-16T04:55:06.452Z,96710.72
2023-04-16T04:57:33.019Z,96714.75
2023-04-16T04:59:59.654Z,96716.31
2023-04-16T05:02:26.300Z,96713.25
2023-04-16T05:04:52.955Z,96718.78
2023-04-16T05:07:19.520Z,96718.53
2023-04-16T05:09:46.131Z,96716.06
2023-04-16T05:12:12.644Z,96721.59
2023-04-16T05:14:39.222Z,96717.91
2023-04-16T05:17:06.107Z,96726.97
2023-04-16T05:19:32.658Z,96725.56
2023-04-16T05:21:59.782Z,96718.25
2023-04-16T05:24:26.349Z,96728.28
2023-04-16T05:26:52.940Z,96727.09
2023-04-16T05:29:19.607Z,96722.47
2023-04-16T05:31:46.388Z,96723.44
2023-04-16T05:34:12.920Z,96727.34
2023-04-16T05:36:39.510Z,96724.06
2023-04-16T05:39:06.298Z,96728.47
2023-04-16T05:41:32.934Z,96723.13
2023-04-16T05:43:59.498Z,96721.44
2023-04-16T05:46:26.407Z,96718.47
2023-04-16T05:48:52.956Z,96717.41
2023-04-16T05:51:20.095Z,96716.50
2023-04-16T05:53:46.669Z,96717.84
2023-04-16T05:56:13.234Z,96716.78
2023-04-16T05:58:39.770Z,96717.09
2023-04-16T06:01:07.530Z,96718.00
2023-04-16T06:03:34.135Z,96716.97
2023-04-16T06:06:00.863Z,96711.50
2023-04-16T06:08:27.441Z,96712.91
2023-04-16T06:10:54.035Z,96706.06
2023-04-16T06:13:20.674Z,96705.44
2023-04-16T06:15:47.980Z,96698.88
2023-04-16T06:18:14.616Z,96691.00
2023-04-16T06:20:41.332Z,96683.63
2023-04-16T06:23:07.877Z,96683.75
2023-04-16T06:25:34.472Z,96678.16
2023-04-16T06:28:01.120Z,96671.00
2023-04-16T06:30:27.819Z,96664.34
2023-04-16T06:32:54.494Z,96648.41
2023-04-16T06:35:21.156Z,96666.47
2023-04-16T06:37:47.725Z,96658.00
2023-04-16T06:40:14.352Z,96659.56
2023-04-16T06:42:41.484Z,96659.56
2023-04-16T06:45:09.896Z,96663.09
2023-04-16T06:47:36.507Z,96654.25
2023-04-16T06:50:03.362Z,96648.31
2023-04-16T06:52:30.191Z,96652.16
2023-04-16T06:54:56.953Z,96641.84
2023-04-16T06:57:23.511Z,96647.03
2023-04-16T06:59:50.358Z,96648.06
2023-04-16T07:02:17.242Z,96647.88
2023-04-16T07:04:43.952Z,96640.53
2023-04-16T07:07:10.576Z,96639.28
2023-04-16T07:09:37.158Z,96644.03
2023-04-16T07:12:04.013Z,96633.53
2023-04-16T07:14:30.604Z,96640.34
2023-04-16T07:16:57.274Z,96637.06
2023-04-16T07:19:23.992Z,96630.31
2023-04-16T07:21:50.733Z,96633.69
2023-04-16T07:24:17.396Z,96626.19
2023-04-16T07:26:43.975Z,96623.72
2023-04-16T07:29:10.686Z,96624.97
2023-04-16T07:31:37.424Z,96625.56
2023-04-16T07:34:04.050Z,96628.78
2023-04-16T07:36:31.877Z,96614.25
2023-04-16T07:38:58.550Z,96596.66
2023-04-16T07:41:25.358Z,96617.66
2023-04-16T07:43:51.927Z,96613.34
2023-04-16T07:46:18.611Z,96609.38
2023-04-16T07:48:45.226Z,96606.22
2023-04-16T07:51:11.995Z,96598.63
2023-04-16T07:53:38.547Z,96596.81
2023-04-16T07:56:05.578Z,96591.22
2023-04-16T07:58:32.125Z,96592.59
2023-04-16T08:00:59.089Z,96589.41
2023-04-16T08:03:25.965Z,96588.13
2023-04-16T08:05:52.843Z,96583.16
2023-04-16T08:08:19.483Z,96592.19
2023-04-16T08:10:46.123Z,96585.06
2023-04-16T08:13:12.679Z,96586.06
2023-04-16T08:15:39.271Z,96573.41
2023-04-16T08:18:07.221Z,96574.78
2023-04-16T08:20:33.895Z,96559.47
2023-04-16T08:23:00.469Z,96564.47
2023-04-16T08:25:26.980Z,96566.78
2023-04-16T08:27:53.535Z,96557.59
2023-04-16T08:30:21.913Z,96556.84
2023-04-16T08:32:50.136Z,96544.44
2023-04-16T08:35:17.137Z,96545.72
2023-04-16T08:37:43.821Z,96551.81
2023-04-16T08:40:10.758Z,96533.25
2023-04-16T08:42:53.085Z,96532.03
2023-04-16T08:45:20.232Z,96545.22
2023-04-16T08:47:49.366Z,96528.50
2023-04-16T08:50:17.297Z,96543.03
2023-04-16T08:52:51.535Z,96548.16
2023-04-16T08:55:22.497Z,96541.78
2023-04-16T08:57:54.541Z,96529.19
2023-04-16T09:00:21.752Z,96535.94
2023-04-16T09:02:50.439Z,96534.38
2023-04-16T09:05:19.001Z,96525.59
2023-04-16T09:07:46.504Z,96537.19
2023-04-16T09:10:15.071Z,96538.00
2023-04-16T09:12:43.035Z,96536.22
2023-04-16T09:15:13.944Z,96534.97
2023-04-16T09:17:40.942Z,96536.78
2023-04-16T09:20:09.003Z,96535.28
2023-04-16T09:22:36.115Z,96538.59
2023-04-16T09:25:03.172Z,96530.38
2023-04-16T09:27:30.861Z,96527.75
2023-04-16T09:29:57.764Z,96523.06
2023-04-16T09:32:28.297Z,96515.97
2023-04-16T09:34:59.846Z,96502.13
2023-04-16T09:37:30.824Z,96504.38
2023-04-16T09:40:02.064Z,96481.59
2023-04-16T09:42:33.603Z,96487.63
2023-04-16T09:45:02.019Z,96478.59
2023-04-16T09:47:43.737Z,96458.16
2023-04-16T09:50:17.738Z,96458.34
2023-04-16T09:52:51.583Z,96456.50
2023-04-16T09:55:23.799Z,96455.44
2023-04-16T09:57:59.072Z,96450.88
2023-04-16T10:00:25.864Z,96445.19
2023-04-16T10:03:04.655Z,96447.88
2023-04-16T10:05:31.292Z,96447.22
2023-04-16T10:08:01.287Z,96454.19
2023-04-16T10:10:28.546Z,96436.00
2023-04-16T10:12:55.776Z,96444.06
2023-04-16T10:15:22.659Z,96432.09
2023-04-16T10:17:50.199Z,96427.69
2023-04-16T10:20:18.506Z,96430.66
2023-04-16T10:22:45.555Z,96420.41
2023-04-16T10:25:12.877Z,96415.72
2023-04-16T10:27:40.769Z,96465.03
2023-04-16T10:30:09.456Z,96460.81
2023-04-16T10:32:38.088Z,96456.34
2023-04-16T10:35:05.305Z,96452.06
2023-04-16T10:37:32.693Z,96445.78
2023-04-16T10:40:00.158Z,96452.59
2023-04-16T10:42:27.546Z,96452.28
2023-04-16T10:44:54.020Z,96448.53
2023-04-16T10:47:24.883Z,96453.00
2023-04-16T10:49:52.030Z,96444.66
2023-04-16T10:52:18.690Z,96442.66
2023-04-16T10:54:48.059Z,96436.19
2023-04-16T10:57:20.191Z,96430.16
2023-04-16T10:59:48.901Z,96435.75
2023-04-16T11:02:18.220Z,96430.78
2023-04-16T11:04:47.455Z,96432.38
2023-04-16T11:07:14.058Z,96422.91
2023-04-16T11:09:54.411Z,96421.06
2023-04-16T11:12:21.043Z,96412.97
2023-04-16T11:14:50.040Z,96411.78
2023-04-16T11:17:17.195Z,96408.22
2023-04-16T11:19:44.128Z,96411.44
2023-04-16T11:22:15.069Z,96405.13
2023-04-16T11:24:41.754Z,96408.63
2023-04-16T11:27:08.719Z,96389.66
2023-04-16T11:29:35.413Z,96403.53
2023-04-16T11:32:02.017Z,96394.78
2023-04-16T11:34:28.695Z,96405.94
2023-04-16T11:36:55.334Z,96399.97
2023-04-16T11:39:21.891Z,96404.44
2023-04-16T11:41:52.321Z,96395.22
2023-04-16T11:44:26.537Z,96386.16
2023-04-16T11:46:54.190Z,96387.28
2023-04-16T11:49:30.163Z,96375.59
2023-04-16T11:51:57.565Z,96366.03
2023-04-16T11:54:25.328Z,96374.66
2023-04-16T11:56:53.234Z,96369.56
2023-04-16T11:59:24.007Z,96365.66
2023-04-16T12:01:53.060Z,96350.09
2023-04-16T12:04:21.534Z,96352.03
2023-04-16T12:07:09.532Z,96363.56
2023-04-16T12:09:40.114Z,96341.94
2023-04-16T12:12:26.216Z,96353.16
2023-04-16T12:14:53.482Z,96352.91
2023-04-16T12:17:20.883Z,96355.66
2023-04-16T12:19:58.697Z,96352.91
2023-04-16T12:22:37.029Z,96347.00
2023-04-16T12:25:24.681Z,96346.19
2023-04-16T12:27:55.468Z,96358.31
2023-04-16T12:30:23.823Z,96355.03
2023-04-16T12:32:53.343Z,96351.25
2023-04-16T12:35:31.542Z,96350.66
2023-04-16T12:37:58.177Z,96345.56
2023-04-16T12:40:24.880Z,96341.63
2023-04-16T12:42:51.653Z,96342.84
2023-04-16T12:45:18.421Z,96340.19
2023-04-16T12:47:44.980Z,96334.38
2023-04-16T12:50:11.627Z,96328.16
2023-04-16T12:52:38.239Z,96329.38
2023-04-16T12:55:05.213Z,96322.75
2023-04-16T12:57:31.792Z,96323.53
2023-04-16T12:59:59.329Z,96322.47
2023-04-16T13:02:26.116Z,96330.50
2023-04-16T13:04:53.899Z,96343.41
2023-04-16T13:07:21.312Z,96347.88
2023-04-16T13:09:48.071Z,96342.34
2023-04-16T13:12:14.687Z,96352.97
2023-04-16T13:14:44.624Z,96345.34
2023-04-16T13:17:11.811Z,96346.94
2023-04-16T13:19:38.354Z,96334.66
2023-04-16T13:22:04.962Z,96335.56
2023-04-16T13:24:31.621Z,96333.72
2023-04-16T13:26:58.417Z,96323.41
2023-04-16T13:29:25.113Z,96319.88
2023-04-16T13:31:52.368Z,96329.78
2023-04-16T13:34:18.998Z,96341.13
2023-04-16T13:36:45.821Z,96346.72
2023-04-16T13:39:12.663Z,96353.22
2023-04-16T13:41:39.572Z,96354.56
2023-04-16T13:44:06.854Z,96363.47
2023-04-16T13:46:33.650Z,96358.09
2023-04-16T13:49:00.398Z,96360.38
2023-04-16T13:51:27.754Z,96369.13
2023-04-16T13:53:55.248Z,96383.41
2023-04-16T13:56:21.941Z,96382.22
2023-04-16T13:58:48.699Z,96378.16
2023-04-16T14:01:15.438Z,96390.59
2023-04-16T14:03:42.100Z,96380.81
2023-04-16T14:06:08.810Z,96389.09
2023-04-16T14:08:35.636Z,96372.94
2023-04-16T14:11:02.445Z,96390.72
2023-04-16T14:13:29.080Z,96393.34
2023-04-16T14:15:55.951Z,96400.22
2023-04-16T14:18:22.648Z,96397.38
2023-04-16T14:20:49.231Z,96406.72
2023-04-16T14:23:15.812Z,96402.94
2023-04-16T14:25:42.459Z,96402.38
2023-04-16T14:28:09.431Z,96405.72
2023-04-16T14:30:36.043Z,96412.72
2023-04-16T14:33:05.411Z,96405.81
2023-04-16T14:35:32.967Z,96411.66
2023-04-16T14:37:59.894Z,96421.03
2023-04-16T14:40:26.485Z,96414.28
2023-04-16T14:42:53.175Z,96417.16
2023-04-16T14:45:19.806Z,96419.53
2023-04-16T14:47:47.850Z,96417.72
2023-04-16T14:50:15.775Z,96404.13
2023-04-16T14:52:42.454Z,96434.78
2023-04-16T14:55:09.244Z,96428.66
2023-04-16T14:57:35.937Z,96441.59
2023-04-16T15:00:07.542Z,96440.38
2023-04-16T15:02:35.249Z,96445.00
2023-04-16T15:05:02.122Z,96435.25
2023-04-16T15:07:28.783Z,96463.63
2023-04-16T15:09:55.548Z,96465.94
2023-04-16T15:12:22.197Z,96468.78
2023-04-16T15:14:48.781Z,96478.06
2023-04-16T15:17:15.516Z,96472.13
2023-04-16T15:19:42.082Z,96483.72
2023-04-16T15:22:08.625Z,96476.25
2023-04-16T15:24:35.237Z,96485.03
2023-04-16T15:27:02.593Z,96495.81
2023-04-16T15:29:29.059Z,96488.31
2023-04-16T15:31:56.023Z,96491.38
2023-04-16T15:34:22.587Z,96508.09
2023-04-16T15:36:49.276Z,96500.84
2023-04-16T15:39:15.865Z,96510.59
2023-04-16T15:41:59.289Z,96496.97
2023-04-16T15:44:27.746Z,96496.16
2023-04-16T15:46:54.297Z,96505.66
2023-04-16T15:49:20.922Z,96494.88
2023-04-16T15:51:47.531Z,96494.88
2023-04-16T15:54:14.126Z,96502.63
2023-04-16T15:56:40.911Z,96494.91
2023-04-16T15:59:08.210Z,96500.84
2023-04-16T16:01:34.876Z,96494.91
2023-04-16T16:04:01.742Z,96496.75
2023-04-16T16:06:28.546Z,96492.59
2023-04-16T16:08:55.157Z,96482.03
2023-04-16T16:11:21.888Z,96485.66
2023-04-16T16:13:48.787Z,96488.47
2023-04-16T16:16:15.488Z,96497.22
2023-04-16T16:18:42.324Z,96493.34
2023-04-16T16:21:08.881Z,96495.66
2023-04-16T16:23:35.499Z,96486.59
2023-04-16T16:26:02.315Z,96486.38
2023-04-16T16:28:29.117Z,96488.94
2023-04-16T16:30:58.642Z,96487.13
2023-04-16T16:33:25.395Z,96485.34
2023-04-16T16:35:52.028Z,96478.63
2023-04-16T16:38:18.610Z,96481.94
2023-04-16T16:40:45.298Z,96475.75
2023-04-16T16:43:11.965Z,96483.75
2023-04-16T16:45:38.923Z,96482.97
2023-04-16T16:48:05.954Z,96482.44
2023-04-16T16:50:32.915Z,96475.75
2023-04-16T16:53:00.233Z,96463.19
2023-04-16T16:55:26.927Z,96463.69
2023-04-16T16:57:53.523Z,96456.22
2023-04-16T17:00:21.483Z,96456.75
2023-04-16T17:02:51.146Z,96461.34
2023-04-16T17:05:18.175Z,96442.78
2023-04-16T17:07:44.806Z,96458.53
2023-04-16T17:10:13.329Z,96458.53
2023-04-16T17:12:39.974Z,96460.28
2023-04-16T17:15:07.159Z,96460.34
2023-04-16T17:17:33.954Z,96455.44
2023-04-16T17:20:01.168Z,96469.50
2023-04-16T17:22:27.741Z,96469.41
2023-04-16T17:24:54.410Z,96468.59
2023-04-16T17:27:21.014Z,96472.94
2023-04-16T17:29:47.594Z,96475.22
2023-04-16T17:32:14.192Z,96471.47
2023-04-16T17:34:41.019Z,96472.38
2023-04-16T17:37:07.668Z,96473.66
2023-04-16T17:39:34.253Z,96477.56
2023-04-16T17:42:03.055Z,96469.06
2023-04-16T17:44:29.645Z,96472.66
2023-04-16T17:46:56.759Z,96485.25
2023-04-16T17:49:23.378Z,96475.47
2023-04-16T17:51:49.984Z,96475.06
2023-04-16T17:54:16.545Z,96477.59
2023-04-16T17:56:43.184Z,96473.47
2023-04-16T17:59:09.747Z,96474.03
2023-04-16T18:01:36.338Z,96476.41
2023-04-16T18:04:03.317Z,96464.81
2023-04-16T18:06:30.955Z,96481.78
2023-04-16T18:08:57.473Z,96490.69
2023-04-16T18:11:24.059Z,96481.28
2023-04-16T18:13:52.815Z,96485.34
2023-04-16T18:16:19.798Z,96489.22
2023-04-16T18:18:46.475Z,96489.59
2023-04-16T18:21:13.261Z,96488.25
2023-04-16T18:23:39.992Z,96491.81
2023-04-16T18:26:08.496Z,96498.97
2023-04-16T18:28:35.986Z,96502.91
2023-04-16T18:31:05.576Z,96499.81
2023-04-16T18:36:02.403Z,96512.53
2023-04-16T18:38:32.024Z,96510.00
2023-04-16T18:40:58.673Z,96497.72
2023-04-16T18:43:25.447Z,96514.53
2023-04-16T18:45:52.089Z,96512.16
2023-04-16T18:48:18.618Z,96513.91
2023-04-16T18:50:45.255Z,96516.06
2023-04-16T18:53:11.798Z,96509.47
2023-04-16T18:55:38.429Z,96508.00
2023-04-16T18:58:05.068Z,96505.75
2023-04-16T19:00:31.922Z,96516.06
2023-04-16T19:02:58.559Z,96512.72
2023-04-16T19:05:25.335Z,96508.31
2023-04-16T19:07:51.943Z,96511.75
2023-04-16T19:10:18.572Z,96513.28
2023-04-16T19:12:45.415Z,96510.72
2023-04-16T19:15:12.062Z,96513.50
2023-04-16T19:17:39.923Z,96509.31
2023-04-16T19:20:11.178Z,96519.00
2023-04-16T19:22:38.337Z,96510.53
2023-04-16T19:25:06.132Z,96509.53
2023-04-16T19:27:33.472Z,96504.34
2023-04-16T19:30:00.064Z,96506.50
2023-04-16T19:32:26.755Z,96500.69
2023-04-16T19:34:53.292Z,96505.31
2023-04-16T19:37:19.893Z,96503.13
2023-04-16T19:39:46.447Z,96505.97
2023-04-16T19:42:13.012Z,96502.63
2023-04-16T19:44:39.605Z,96498.78
2023-04-16T19:47:06.554Z,96501.81
2023-04-16T19:49:34.544Z,96502.97
2023-04-16T19:52:01.387Z,96502.69
2023-04-16T19:54:28.928Z,96503.63
2023-04-16T19:56:55.635Z,96504.25
2023-04-16T19:59:22.362Z,96508.28
2023-04-16T20:01:49.014Z,96502.03
2023-04-16T20:04:16.007Z,96506.09
2023-04-16T20:06:42.615Z,96496.59
2023-04-16T20:09:09.489Z,96505.47
2023-04-16T20:11:36.191Z,96499.19
2023-04-16T20:14:03.346Z,96501.50
2023-04-16T20:16:30.227Z,96497.09
2023-04-16T20:18:56.940Z,96487.19
2023-04-16T20:21:23.544Z,96488.41
2023-04-16T20:23:50.134Z,96494.53
2023-04-16T20:26:18.375Z,96486.91
2023-04-16T20:28:45.739Z,96487.88
2023-04-16T20:31:13.044Z,96489.63
2023-04-16T20:33:39.609Z,96482.25
2023-04-16T20:36:06.866Z,96489.72
2023-04-16T20:38:35.542Z,96492.94
2023-04-16T20:41:12.506Z,96483.41
2023-04-16T20:43:42.074Z,96490.81
2023-04-16T20:46:08.903Z,96489.25
2023-04-16T20:48:35.544Z,96489.25
2023-04-16T20:51:03.970Z,96486.94
2023-04-16T20:53:32.135Z,96473.75
2023-04-16T20:56:02.485Z,96482.47
2023-04-16T20:58:29.666Z,96464.25
2023-04-16T21:00:57.264Z,96473.91
2023-04-16T21:03:24.860Z,96483.25
2023-04-16T21:05:53.396Z,96486.53
2023-04-16T21:08:21.299Z,96475.34
2023-04-16T21:10:48.363Z,96490.84
2023-04-16T21:13:16.474Z,96470.09
2023-04-16T21:15:44.886Z,96482.53
2023-04-16T21:18:11.784Z,96486.03
2023-04-16T21:20:39.110Z,96479.53
2023-04-16T21:23:05.923Z,96486.22
2023-04-16T21:25:33.516Z,96487.41
2023-04-16T21:28:00.218Z,96497.09
2023-04-16T21:30:27.119Z,96487.41
2023-04-16T21:32:53.707Z,96485.44
2023-04-16T21:35:20.379Z,96483.88
2023-04-16T21:37:46.922Z,96479.91
2023-04-16T21:40:13.691Z,96481.75
2023-04-16T21:42:42.281Z,96479.25
2023-04-16T21:45:10.238Z,96483.50
2023-04-16T21:47:37.573Z,96484.47
2023-04-16T21:50:04.722Z,96493.31
2023-04-16T21:52:32.941Z,96487.97
2023-04-16T21:55:02.616Z,96479.53
2023-04-16T21:57:29.144Z,96471.78
2023-04-16T21:59:55.753Z,96473.59
2023-04-16T22:02:22.414Z,96480.97
2023-04-16T22:04:49.101Z,96471.25
2023-04-16T22:07:16.941Z,96463.03
2023-04-16T22:09:43.761Z,96462.91
2023-04-16T22:12:10.522Z,96463.06
2023-04-16T22:14:42.053Z,96452.38
2023-04-16T22:17:12.992Z,96443.34
2023-04-16T22:19:39.953Z,96453.13
2023-04-16T22:22:06.543Z,96453.66
2023-04-16T22:24:33.136Z,96445.53
2023-04-16T22:26:59.888Z,96447.84
2023-04-16T22:29:26.434Z,96446.66
2023-04-16T22:31:53.080Z,96449.19
2023-04-16T22:34:19.719Z,96446.06
2023-04-16T22:36:47.601Z,96451.69
2023-04-16T22:39:14.700Z,96432.88
2023-04-16T22:41:41.562Z,96462.25
2023-04-16T22:44:08.116Z,96470.06
2023-04-16T22:46:34.723Z,96469.78
2023-04-16T22:49:01.407Z,96471.03
2023-04-16T22:51:28.065Z,96479.63
2023-04-16T22:53:54.662Z,96471.69
2023-04-16T22:56:21.818Z,96474.16
2023-04-16T22:58:51.052Z,96472.88
2023-04-16T23:01:17.719Z,96456.03
2023-04-16T23:03:44.435Z,96465.34
2023-04-16T23:06:11.111Z,96455.09
2023-04-16T23:08:37.684Z,96457.66
2023-04-16T23:11:04.246Z,96454.13
2023-04-16T23:13:31.493Z,96446.63
2023-04-16T23:15:58.379Z,96448.22
2023-04-16T23:18:24.970Z,96442.16
2023-04-16T23:20:52.851Z,96452.00
2023-04-16T23:23:19.795Z,96454.81
2023-04-16T23:25:46.341Z,96452.34
2023-04-16T23:28:12.918Z,96451.75
2023-04-16T23:30:39.485Z,96456.06
2023-04-16T23:33:06.234Z,96440.78
2023-04-16T23:35:32.815Z,96435.19
2023-04-16T23:37:59.537Z,96432.03
2023-04-16T23:40:26.235Z,96428.00
2023-04-16T23:42:52.760Z,96435.13
2023-04-16T23:45:19.332Z,96431.06
2023-04-16T23:47:45.966Z,96431.84
2023-04-16T23:50:12.712Z,96402.47
2023-04-16T23:52:39.891Z,96403.16
2023-04-16T23:55:06.737Z,96417.31
2023-04-16T23:57:33.320Z,96418.09
2023-04-16T23:59:59.852Z,96416.81
